Wetterdaten: aktuell Donnerstag, 03.09.2026 18:19
Datum Zeit Temp. A. Feuchte A. Luftdruck Regen Wind Richtung Richtung Taupunkt Windchill
03.09.2026 18:19 25,6 °C 29 % 1010,8 hPa 0,0 l/m² 0,1 km/h (0 Bft) O-SO 110 ° 6,2 °C 25,6 °C
03.09.2026 18:17 25,6 °C 29 % 1010,8 hPa 0,0 l/m² 3,7 km/h (1 Bft) S-SO±67.5° 155 ° 6,2 °C 25,6 °C
03.09.2026 18:15 25,7 °C 29 % 1010,8 hPa 0,0 l/m² 3,7 km/h (1 Bft) S-SO±67.5° 155 ° 6,3 °C 25,7 °C
03.09.2026 18:13 25,7 °C 29 % 1010,8 hPa 0,0 l/m² 2,8 km/h (1 Bft) W-SW 240 ° 6,3 °C 25,7 °C
03.09.2026 18:11 25,7 °C 29 % 1010,8 hPa 0,0 l/m² 10,0 km/h (2 Bft) W-SW 245 ° 6,3 °C 24,9 °C
03.09.2026 18:09 25,8 °C 29 % 1010,8 hPa 0,0 l/m² 4,3 km/h (1 Bft) W±67.5° 280 ° 6,4 °C 25,8 °C
03.09.2026 18:07 25,8 °C 29 % 1010,8 hPa 0,0 l/m² 4,3 km/h (1 Bft) W±67.5° 280 ° 6,4 °C 25,8 °C
03.09.2026 18:05 25,8 °C 29 % 1010,8 hPa 0,0 l/m² 0,2 km/h (0 Bft) W-NW 285 ° 6,4 °C 25,8 °C
03.09.2026 18:03 25,9 °C 29 % 1010,8 hPa 0,0 l/m² 0,0 km/h (0 Bft) W-NW 290 ° 6,5 °C 25,9 °C
03.09.2026 18:01 26,0 °C 29 % 1010,8 hPa 0,0 l/m² 4,8 km/h (1 Bft) W-NW±22.5° 300 ° 6,6 °C 26,0 °C
03.09.2026 17:59 26,1 °C 28 % 1010,8 hPa 0,0 l/m² 4,8 km/h (1 Bft) W-NW±22.5° 300 ° 6,2 °C 26,1 °C
03.09.2026 17:57 26,1 °C 28 % 1010,8 hPa 0,0 l/m² 3,3 km/h (1 Bft) N-NO±67.5° 15 ° 6,2 °C 26,1 °C
03.09.2026 17:54 26,1 °C 28 % 1010,8 hPa 0,0 l/m² 3,2 km/h (1 Bft) N-NO±67.5° 20 ° 6,2 °C 26,1 °C
03.09.2026 17:52 26,2 °C 28 % 1010,8 hPa 0,0 l/m² 3,2 km/h (1 Bft) N-NO±67.5° 20 ° 6,2 °C 26,2 °C
03.09.2026 17:50 26,2 °C 28 % 1010,8 hPa 0,0 l/m² 1,8 km/h (1 Bft) N-NW±22.5° 340 ° 6,2 °C 26,2 °C
03.09.2026 17:48 26,2 °C 27 % 1010,8 hPa 0,0 l/m² 4,8 km/h (1 Bft) N-NO±67.5° 30 ° 5,7 °C 26,2 °C
03.09.2026 17:46 26,2 °C 27 % 1010,8 hPa 0,0 l/m² 10,5 km/h (2 Bft) NO±67.5° 55 ° 5,7 °C 25,4 °C
03.09.2026 17:44 26,2 °C 27 % 1010,8 hPa 0,0 l/m² 10,5 km/h (2 Bft) NO±67.5° 55 ° 5,7 °C 25,4 °C
03.09.2026 17:43 26,3 °C 27 % 1010,8 hPa 0,0 l/m² 3,6 km/h (1 Bft) N±45° 10 ° 5,8 °C 26,3 °C
03.09.2026 17:41 26,3 °C 27 % 1010,8 hPa 0,0 l/m² 1,8 km/h (1 Bft) NO 35 ° 5,8 °C 26,3 °C
03.09.2026 17:39 26,3 °C 27 % 1010,8 hPa 0,0 l/m² 1,8 km/h (1 Bft) NO 35 ° 5,8 °C 26,3 °C
03.09.2026 17:37 26,3 °C 27 % 1010,8 hPa 0,0 l/m² 1,9 km/h (1 Bft) S-SO±22.5° 155 ° 5,8 °C 26,3 °C
03.09.2026 17:35 26,3 °C 27 % 1010,8 hPa 0,0 l/m² 1,5 km/h (1 Bft) S±67.5° 180 ° 5,8 °C 26,3 °C
03.09.2026 17:33 26,3 °C 27 % 1010,8 hPa 0,0 l/m² 0,6 km/h (0 Bft) W±45° 270 ° 5,8 °C 26,3 °C
03.09.2026 17:31 26,4 °C 26 % 1010,8 hPa 0,0 l/m² 0,6 km/h (0 Bft) W±45° 270 ° 5,3 °C 26,4 °C
03.09.2026 17:29 26,3 °C 26 % 1010,8 hPa 0,0 l/m² 6,1 km/h (2 Bft) NW±22.5° 315 ° 5,3 °C 26,3 °C
03.09.2026 17:27 26,3 °C 26 % 1010,8 hPa 0,0 l/m² 4,2 km/h (1 Bft) N±67.5° 355 ° 5,3 °C 26,3 °C
03.09.2026 17:25 26,3 °C 26 % 1010,8 hPa 0,0 l/m² 4,0 km/h (1 Bft) O±67.5° 90 ° 5,3 °C 26,3 °C
03.09.2026 17:23 26,3 °C 26 % 1010,8 hPa 0,0 l/m² 4,0 km/h (1 Bft) O±67.5° 90 ° 5,3 °C 26,3 °C
03.09.2026 17:21 26,3 °C 26 % 1010,8 hPa 0,0 l/m² 7,3 km/h (2 Bft) O-SO±45° 115 ° 5,3 °C 26,1 °C
03.09.2026 17:19 26,2 °C 27 % 1010,8 hPa 0,0 l/m² 5,0 km/h (1 Bft) S-SO±67.5° 155 ° 5,7 °C 26,2 °C
03.09.2026 17:17 26,1 °C 27 % 1010,8 hPa 0,0 l/m² 5,0 km/h (1 Bft) S-SO±67.5° 155 ° 5,6 °C 26,1 °C
03.09.2026 17:14 26,1 °C 27 % 1010,8 hPa 0,0 l/m² 1,3 km/h (1 Bft) O±67.5° 80 ° 5,6 °C 26,1 °C
03.09.2026 17:12 26,0 °C 26 % 1010,8 hPa 0,0 l/m² 1,6 km/h (1 Bft) N-NW±45° 335 ° 5,0 °C 26,0 °C
03.09.2026 17:10 26,0 °C 26 % 1010,8 hPa 0,0 l/m² 1,0 km/h (0 Bft) NO±67.5° 45 ° 5,0 °C 26,0 °C
03.09.2026 17:08 26,0 °C 26 % 1010,8 hPa 0,0 l/m² 1,0 km/h (0 Bft) NO±67.5° 45 ° 5,0 °C 26,0 °C
03.09.2026 17:06 25,9 °C 26 % 1010,8 hPa 0,0 l/m² 3,4 km/h (1 Bft) N-NW±22.5° 345 ° 4,9 °C 25,9 °C
03.09.2026 17:04 25,9 °C 26 % 1010,8 hPa 0,0 l/m² 3,4 km/h (1 Bft) N-NW±22.5° 345 ° 4,9 °C 25,9 °C
03.09.2026 17:03 25,9 °C 26 % 1010,8 hPa 0,0 l/m² 8,3 km/h (2 Bft) O-SO±67.5° 110 ° 4,9 °C 25,5 °C
03.09.2026 17:01 26,0 °C 25 % 1010,8 hPa 0,0 l/m² 8,3 km/h (2 Bft) O-SO±67.5° 110 ° 4,4 °C 25,6 °C
03.09.2026 16:59 26,0 °C 26 % 1011,8 hPa 0,0 l/m² 4,2 km/h (1 Bft) NO±67.5° 40 ° 5,0 °C 26,0 °C
_ Min-Zeit 06:10 17:01 17:31 - 00:00 - - 17:01 06:10
Minimum _ 14,7 °C 25 % 1010,8 hPa - 0,0 km/h (0 Bft) - - 4,4 °C 14,7 °C
_ Max-Zeit 17:31 06:06 06:10 00:00 15:02 - - 10:41 17:31
Maximum _ 26,4 °C 66 % 1014,3 hPa 0,0 l/m² 16,1 km/h
S-SW (3 Bft)
- - 10,0 °C 26,4 °C
Durchschnitt _ 19,5 °C 49 % 1013,2 hPa #0,0 l/m² 3,2 km/h (1 Bft) SO - 7,8 °C 19,3 °C